Time;durP1;ratioP1;P1;durP2;ratioP2;P2;SDS_P1;SDS_P2;PMS_P1;PMS_P2;Temp;Humidity;BMP_temperature;BMP_pressure;BME280_temperature;BME280_humidity;BME280_pressure;Samples;Min_cycle;Max_cycle;Signal;HPM_P1;HPM_P2
2021/11/01 00:01:27;;;;;;;;;2.50;2.00;;;;;11.50;68.43;99439.59;5079173;27;46107;-61
2021/11/01 00:03:52;;;;;;;;;5.75;4.00;;;;;11.50;68.34;99438.78;5079405;27;45376;-61
2021/11/01 00:06:17;;;;;;;;;8.25;5.75;;;;;11.50;68.75;99441.41;5079556;28;45297;-61
2021/11/01 00:08:45;;;;;;;;;60.25;47.25;;;;;11.49;68.35;99439.75;5079188;28;46380;-60
2021/11/01 00:11:10;;;;;;;;;29.50;24.00;;;;;11.48;68.86;99438.13;5078048;28;45536;-60
2021/11/01 00:13:35;;;;;;;;;19.25;17.00;;;;;11.47;68.55;99439.13;5077503;28;59107;-60
2021/11/01 00:16:01;;;;;;;;;7.00;5.00;;;;;11.46;68.81;99426.94;5078519;27;61220;-61
2021/11/01 00:18:26;;;;;;;;;5.25;4.00;;;;;11.44;68.52;99427.09;5079304;28;45203;-61
2021/11/01 00:20:51;;;;;;;;;8.75;4.00;;;;;11.43;68.52;99426.28;5079042;27;46232;-60
2021/11/01 00:23:17;;;;;;;;;9.50;3.00;;;;;11.43;68.46;99426.28;5078007;28;64941;-60
2021/11/01 00:25:42;;;;;;;;;6.50;4.50;;;;;11.41;68.25;99425.66;5077130;28;63943;-61
2021/11/01 00:28:10;;;;;;;;;5.25;3.75;;;;;11.40;68.68;99415.28;5077937;28;45411;-61
2021/11/01 00:30:36;;;;;;;;;6.50;4.50;;;;;11.40;68.75;99413.47;5077579;28;46629;-61
2021/11/01 00:33:01;;;;;;;;;6.00;5.00;;;;;11.39;68.44;99414.47;5078903;28;45402;-62
2021/11/01 00:35:27;;;;;;;;;8.50;5.00;;;;;11.38;68.74;99409.41;5078146;27;65563;-61
2021/11/01 00:37:52;;;;;;;;;7.25;4.75;;;;;11.38;68.87;99414.66;5077949;28;65228;-60
2021/11/01 00:40:17;;;;;;;;;6.50;5.00;;;;;11.37;68.86;99400.66;5076649;27;64499;-61
2021/11/01 00:42:43;;;;;;;;;6.50;3.25;;;;;11.36;69.13;99400.84;5078856;28;45317;-61
2021/11/01 00:45:08;;;;;;;;;4.75;3.50;;;;;11.34;68.73;99402.81;5078063;27;62480;-61
2021/11/01 00:47:34;;;;;;;;;5.00;4.00;;;;;11.33;68.67;99396.72;5078758;28;45667;-60
2021/11/01 00:49:59;;;;;;;;;0.25;0.00;;;;;11.31;69.02;99396.06;5078104;28;65638;-60
2021/11/01 00:52:26;;;;;;;;;8.25;4.00;;;;;11.30;68.91;99394.44;5078580;28;45485;-61
2021/11/01 00:54:58;;;;;;;;;3.75;3.75;;;;;11.27;68.96;99390.34;5078742;27;45310;-61
2021/11/01 00:57:23;;;;;;;;;6.25;4.75;;;;;11.26;69.30;99383.44;5077586;28;45280;-61
2021/11/01 00:59:48;;;;;;;;;6.00;4.00;;;;;11.26;68.89;99382.63;5077519;28;70112;-60
2021/11/01 01:02:14;;;;;;;;;7.75;5.00;;;;;11.25;69.23;99379.19;5077775;28;66573;-60
2021/11/01 01:04:39;;;;;;;;;11.00;9.00;;;;;11.23;69.24;99378.53;5078529;28;45180;-60
2021/11/01 01:07:06;;;;;;;;;6.25;4.50;;;;;11.22;69.00;99371.63;5077811;28;57313;-61
2021/11/01 01:09:31;;;;;;;;;4.75;3.00;;;;;11.23;69.02;99373.28;5078271;27;46610;-60
2021/11/01 01:11:57;;;;;;;;;3.75;2.00;;;;;11.22;69.24;99382.16;5076227;28;67668;-61
2021/11/01 01:14:26;;;;;;;;;3.25;3.00;;;;;11.21;69.22;99377.03;5077044;28;45552;-60
2021/11/01 01:16:52;;;;;;;;;11.00;7.75;;;;;11.17;69.49;99366.06;5077031;28;45407;-61
2021/11/01 01:19:22;;;;;;;;;2.75;2.50;;;;;11.16;68.96;99367.03;5076880;28;45422;-60
2021/11/01 01:24:31;;;;;;;;;6.50;3.00;;;;;11.12;69.36;99366.56;5078017;28;45405;-60
2021/11/01 01:26:57;;;;;;;;;12.00;6.25;;;;;11.12;69.28;99377.09;5076856;28;45262;-60
2021/11/01 01:29:23;;;;;;;;;2.25;2.00;;;;;11.11;69.01;99375.44;5077610;28;53723;-60
2021/11/01 01:31:48;;;;;;;;;5.00;3.75;;;;;11.11;69.04;99364.94;5076811;28;45911;-60
2021/11/01 01:34:14;;;;;;;;;5.00;2.75;;;;;11.10;69.33;99368.53;5077838;28;45366;-61
2021/11/01 01:36:39;;;;;;;;;7.75;3.25;;;;;11.11;69.41;99366.72;5077196;28;65473;-61
2021/11/01 01:39:04;;;;;;;;;6.75;3.25;;;;;11.09;69.06;99359.03;5076986;27;66397;-61
2021/11/01 01:41:30;;;;;;;;;4.50;0.50;;;;;11.10;69.53;99358.03;5076912;28;65686;-61
2021/11/01 01:43:58;;;;;;;;;11.50;8.25;;;;;11.10;69.20;99352.78;5078050;28;45340;-60
2021/11/01 01:46:24;;;;;;;;;7.25;7.00;;;;;11.12;70.05;99348.16;5077936;28;45235;-61
2021/11/01 01:48:52;;;;;;;;;5.50;5.00;;;;;11.13;69.81;99367.38;5075709;27;46271;-61
2021/11/01 01:51:17;;;;;;;;;10.25;5.75;;;;;11.12;69.37;99366.56;5077632;28;45432;-61
2021/11/01 01:53:44;;;;;;;;;5.25;3.75;;;;;11.12;69.81;99358.69;5077745;28;45353;-60
2021/11/01 01:56:09;;;;;;;;;3.00;1.75;;;;;11.14;69.49;99358.50;5077876;28;45417;-60
2021/11/01 01:58:40;;;;;;;;;4.00;2.00;;;;;11.16;69.42;99355.69;5077581;27;47154;-60
2021/11/01 02:01:15;;;;;;;;;13.25;8.00;;;;;11.13;69.78;99344.53;5074889;27;45849;-60
2021/11/01 02:03:41;;;;;;;;;8.75;2.75;;;;;11.14;69.50;99338.28;5077898;28;45235;-61
2021/11/01 02:06:10;;;;;;;;;3.00;3.00;;;;;11.15;68.94;99339.13;5076502;27;45593;-60
2021/11/01 02:08:49;;;;;;;;;4.25;1.50;;;;;11.13;69.64;99341.09;5059505;28;46031;-60
2021/11/01 02:11:22;;;;;;;;;2.50;2.50;;;;;11.12;69.59;99345.53;5060879;27;45732;-60
2021/11/01 02:13:49;;;;;;;;;2.00;2.00;;;;;11.13;69.26;99341.09;5060015;28;45341;-60
2021/11/01 02:16:16;;;;;;;;;4.25;2.00;;;;;11.11;69.45;99337.81;5059283;28;45269;-60
2021/11/01 02:18:43;;;;;;;;;1.00;1.00;;;;;11.11;69.43;99337.81;5059421;28;46301;-61
2021/11/01 02:21:53;;;;;;;;;7.75;5.50;;;;;11.10;69.26;99337.00;5075950;27;45347;-61
2021/11/01 02:24:41;;;;;;;;;8.00;3.00;;;;;11.09;69.58;99338.00;5034158;28;45423;-61
2021/11/01 02:27:09;;;;;;;;;3.50;3.50;;;;;11.10;69.41;99325.66;5072278;28;45293;-61
2021/11/01 02:29:35;;;;;;;;;4.00;2.50;;;;;11.09;69.35;99330.09;5075902;28;46185;-61
2021/11/01 02:32:01;;;;;;;;;2.75;1.50;;;;;11.08;69.38;99323.22;5058875;28;45315;-60
2021/11/01 02:34:26;;;;;;;;;3.25;2.00;;;;;11.07;69.37;99332.09;5058914;28;45337;-60
2021/11/01 02:36:52;;;;;;;;;7.00;5.00;;;;;11.07;69.44;99326.00;5058312;28;63575;-60
2021/11/01 02:39:17;;;;;;;;;2.25;2.00;;;;;11.07;69.05;99334.72;5076535;28;61222;-60
2021/11/01 02:41:43;;;;;;;;;2.00;2.00;;;;;11.08;68.90;99338.16;5076914;27;45233;-60
2021/11/01 02:44:09;;;;;;;;;3.50;2.00;;;;;11.06;69.35;99335.69;5077139;27;45219;-61
2021/11/01 02:46:34;;;;;;;;;3.50;2.00;;;;;11.07;69.03;99334.72;5076958;27;45347;-61
2021/11/01 02:49:00;;;;;;;;;3.00;3.00;;;;;11.06;69.01;99330.44;5076959;28;45301;-61
2021/11/01 02:51:27;;;;;;;;;3.75;3.00;;;;;11.06;69.32;99335.69;5076444;28;45177;-60
2021/11/01 02:53:53;;;;;;;;;4.50;2.00;;;;;11.04;69.44;99332.41;5077108;28;45472;-59
2021/11/01 02:56:18;;;;;;;;;4.50;2.50;;;;;11.05;69.32;99341.94;5076838;27;45564;-61
2021/11/01 02:58:44;;;;;;;;;4.00;2.00;;;;;11.03;69.16;99330.78;5076656;28;46161;-60
2021/11/01 03:01:12;;;;;;;;;2.00;1.00;;;;;11.03;69.31;99335.19;5076726;27;45416;-60
2021/11/01 03:03:38;;;;;;;;;2.00;1.75;;;;;11.01;69.01;99330.13;5075631;27;45396;-60
2021/11/01 03:06:04;;;;;;;;;1.00;1.00;;;;;11.01;69.41;99331.91;5075676;28;45437;-61
2021/11/01 03:08:29;;;;;;;;;4.50;1.00;;;;;10.98;69.31;99328.63;5076501;28;47314;-60
2021/11/01 03:10:55;;;;;;;;;2.50;1.25;;;;;10.98;68.74;99331.25;5076105;28;56474;-61
2021/11/01 03:13:20;;;;;;;;;0.25;0.25;;;;;10.98;69.09;99327.84;5058653;28;45345;-60
2021/11/01 03:15:45;;;;;;;;;1.50;1.50;;;;;10.97;68.98;99336.72;5074558;28;69758;-61
2021/11/01 03:18:11;;;;;;;;;2.50;0.50;;;;;10.97;69.27;99328.81;5057691;28;66909;-61
2021/11/01 03:20:44;;;;;;;;;3.00;1.00;;;;;10.95;69.34;99331.59;5075210;28;45295;-60
2021/11/01 03:23:39;;;;;;;;;1.25;1.00;;;;;10.97;68.62;99326.19;5075520;28;45379;-60
2021/11/01 03:26:06;;;;;;;;;2.00;1.00;;;;;10.95;68.73;99336.06;5067263;28;45321;-61
2021/11/01 03:28:32;;;;;;;;;3.00;2.00;;;;;10.92;68.96;99333.75;5075171;28;46828;-60
2021/11/01 03:30:58;;;;;;;;;2.00;1.00;;;;;10.92;68.91;99341.63;5058328;28;45297;-60
2021/11/01 03:33:24;;;;;;;;;5.50;2.00;;;;;10.91;68.94;99337.38;5074504;28;45411;-61
2021/11/01 03:35:49;;;;;;;;;6.00;1.00;;;;;10.89;69.08;99340.16;5076578;28;45314;-59
2021/11/01 03:38:15;;;;;;;;;2.00;2.00;;;;;10.87;68.84;99342.13;5057259;28;73519;-60
2021/11/01 03:40:43;;;;;;;;;3.00;1.25;;;;;10.84;69.03;99345.91;5058099;28;45434;-60
2021/11/01 03:43:09;;;;;;;;;4.50;1.00;;;;;10.86;69.00;99350.19;5075281;28;45481;-60
2021/11/01 03:45:34;;;;;;;;;3.00;1.25;;;;;10.83;69.11;99357.41;5076286;28;45530;-60
2021/11/01 03:48:12;;;;;;;;;2.25;1.00;;;;;10.79;69.13;99350.84;5076079;28;46454;-60
2021/11/01 03:50:42;;;;;;;;;2.00;2.00;;;;;10.79;69.22;99365.81;5076239;27;45828;-60
2021/11/01 03:53:07;;;;;;;;;3.50;2.00;;;;;10.77;69.54;99368.59;5076330;28;45405;-60
2021/11/01 03:55:33;;;;;;;;;1.50;1.25;;;;;10.77;69.43;99367.78;5074992;28;45444;-61
2021/11/01 03:57:58;;;;;;;;;3.25;1.00;;;;;10.76;69.15;99366.16;5074851;28;46081;-61
2021/11/01 04:00:26;;;;;;;;;5.00;2.00;;;;;10.76;69.08;99361.69;5075947;28;45346;-60
2021/11/01 04:02:52;;;;;;;;;3.25;1.50;;;;;10.76;69.67;99366.16;5074786;27;45249;-61
2021/11/01 04:05:17;;;;;;;;;2.75;2.00;;;;;10.74;69.57;99374.19;5076023;28;45208;-60
2021/11/01 04:07:44;;;;;;;;;2.00;2.00;;;;;10.74;69.60;99373.38;5075315;27;64781;-60
2021/11/01 04:10:09;;;;;;;;;3.75;1.00;;;;;10.74;69.46;99374.19;5075836;28;45307;-61
2021/11/01 04:12:36;;;;;;;;;2.75;2.75;;;;;10.74;69.64;99379.44;5078226;28;56556;-61
2021/11/01 04:15:04;;;;;;;;;3.00;1.00;;;;;10.75;69.34;99381.06;5079760;28;45378;-60
2021/11/01 04:22:37;;;;;;;;;2.00;1.00;;;;;10.75;69.52;99385.53;5079394;28;45339;-60
2021/11/01 04:25:03;;;;;;;;;1.25;1.00;;;;;10.74;69.49;99389.94;5077729;27;45558;-61
2021/11/01 04:27:30;;;;;;;;;1.00;1.00;;;;;10.74;69.13;99382.06;5077846;27;46786;-61
2021/11/01 04:29:57;;;;;;;;;4.00;1.75;;;;;10.73;69.48;99392.75;5078977;28;45369;-60
2021/11/01 04:32:37;;;;;;;;;1.25;1.00;;;;;10.74;69.60;99392.56;5079273;27;45398;-61
2021/11/01 04:35:18;;;;;;;;;3.00;2.00;;;;;10.75;69.49;99382.91;5079348;28;45340;-61
2021/11/01 04:37:45;;;;;;;;;3.25;1.00;;;;;10.75;69.69;99391.59;5078919;28;46347;-61
2021/11/01 04:40:24;;;;;;;;;5.50;1.00;;;;;10.77;69.63;99394.88;5077226;28;45273;-61
2021/11/01 04:43:23;;;;;;;;;3.00;2.00;;;;;10.77;69.51;99394.88;5062606;28;45262;-60
2021/11/01 04:54:00;;;;;;;;;6.00;2.00;;;;;10.82;69.05;99402.28;5078798;27;45414;-60
2021/11/01 04:56:26;;;;;;;;;2.50;1.00;;;;;10.81;69.11;99404.06;5078666;27;45429;-61
2021/11/01 04:58:53;;;;;;;;;1.00;1.00;;;;;10.81;69.47;99393.56;5076981;27;46042;-60
2021/11/01 05:01:21;;;;;;;;;4.25;2.00;;;;;10.82;69.00;99389.13;5078480;28;45370;-60
2021/11/01 05:03:51;;;;;;;;;1.00;1.00;;;;;10.81;69.21;99383.03;5060814;28;45364;-60
2021/11/01 05:06:22;;;;;;;;;3.00;2.00;;;;;10.82;69.07;99382.06;5078704;28;45169;-61
2021/11/01 05:08:52;;;;;;;;;0.00;0.00;;;;;10.81;69.26;99383.03;5076747;27;45473;-60
2021/11/01 05:11:38;;;;;;;;;5.75;1.00;;;;;10.81;69.02;99383.03;5078578;27;45896;-61
2021/11/01 05:14:03;;;;;;;;;5.50;1.00;;;;;10.82;69.33;99383.88;5078567;27;45368;-61
2021/11/01 05:16:44;;;;;;;;;1.00;0.75;;;;;10.82;69.12;99384.69;5078360;27;45578;-61
2021/11/01 05:19:23;;;;;;;;;4.00;1.00;;;;;10.81;69.28;99380.41;5076916;28;46677;-60
2021/11/01 05:24:35;;;;;;;;;4.75;2.00;;;;;10.81;68.68;99377.78;5077443;28;45448;-60
2021/11/01 05:29:46;;;;;;;;;1.00;0.00;;;;;10.81;69.02;99384.88;5078153;27;45964;-60
2021/11/01 05:32:14;;;;;;;;;1.75;1.00;;;;;10.80;69.41;99386.66;5076827;27;45367;-61
2021/11/01 05:34:39;;;;;;;;;1.00;1.00;;;;;10.81;69.66;99377.78;5078083;28;45417;-61
2021/11/01 05:37:05;;;;;;;;;2.00;1.00;;;;;10.82;69.10;99392.56;5077453;28;57541;-60
2021/11/01 05:39:30;;;;;;;;;1.25;0.00;;;;;10.82;68.99;99384.69;5078076;28;45237;-61
2021/11/01 05:41:56;;;;;;;;;2.00;1.00;;;;;10.83;69.00;99388.94;5077106;27;65340;-61
2021/11/01 05:44:21;;;;;;;;;1.75;1.00;;;;;10.84;68.88;99374.03;5077192;27;65209;-60
2021/11/01 05:46:51;;;;;;;;;1.00;1.00;;;;;10.84;68.99;99381.91;5077272;28;60302;-60
2021/11/01 05:49:21;;;;;;;;;1.00;1.00;;;;;10.83;69.08;99378.44;5077894;28;46255;-60
2021/11/01 05:51:47;;;;;;;;;1.75;0.00;;;;;10.84;68.79;99369.56;5077860;28;45773;-60
2021/11/01 05:54:16;;;;;;;;;0.00;0.00;;;;;10.84;69.06;99380.09;5078010;28;45460;-61
2021/11/01 05:57:09;;;;;;;;;4.25;2.00;;;;;10.85;69.08;99380.91;5077739;27;45381;-61
2021/11/01 06:13:32;;;;;;;;;2.50;1.00;;;;;10.86;69.34;99398.31;5077226;27;45284;-60
2021/11/01 06:15:58;;;;;;;;;1.00;1.00;;;;;10.84;69.30;99411.63;5077613;28;45344;-61
2021/11/01 06:18:34;;;;;;;;;2.00;1.00;;;;;10.83;69.15;99393.41;5077565;27;45395;-60
2021/11/01 06:21:00;;;;;;;;;2.00;1.00;;;;;10.82;69.40;99395.19;5077244;28;45468;-61
2021/11/01 06:23:26;;;;;;;;;1.00;1.00;;;;;10.82;68.86;99397.81;5077252;28;45279;-61
2021/11/01 06:25:52;;;;;;;;;1.25;1.00;;;;;10.82;69.50;99391.75;5077362;27;45235;-61
2021/11/01 06:28:18;;;;;;;;;4.00;1.75;;;;;10.80;69.38;99389.28;5077397;28;45566;-60
2021/11/01 06:30:51;;;;;;;;;4.50;1.25;;;;;10.79;69.41;99392.09;5075865;28;45461;-61
2021/11/01 06:43:57;;;;;;;;;0.00;0.00;;;;;10.75;69.31;99411.78;5077081;27;45767;-61
2021/11/01 08:39:27;;;;;;;;;3.25;2.00;;;;;12.21;67.30;99464.31;5078915;28;45303;-61
2021/11/01 09:03:19;;;;;;;;;3.75;3.00;;;;;14.21;62.29;99471.03;5078585;28;45317;-61
2021/11/01 09:06:00;;;;;;;;;1.00;1.00;;;;;14.45;61.43;99481.44;5078748;27;45499;-61
2021/11/01 09:21:41;;;;;;;;;2.25;1.00;;;;;15.17;58.44;99479.66;5077983;28;45897;-61
2021/11/01 09:26:37;;;;;;;;;5.00;2.00;;;;;15.21;58.10;99472.16;5078257;28;45296;-61
2021/11/01 09:37:29;;;;;;;;;1.25;0.50;;;;;15.46;57.49;99477.00;5077799;27;45180;-61
2021/11/01 09:42:46;;;;;;;;;1.00;0.00;;;;;15.69;57.02;99463.50;5077867;27;45651;-61
2021/11/01 09:45:11;;;;;;;;;1.00;0.50;;;;;15.82;56.79;99458.25;5077973;28;45313;-61
2021/11/01 09:47:37;;;;;;;;;0.50;0.50;;;;;16.00;57.25;99462.22;5077129;27;63166;-61
2021/11/01 09:50:03;;;;;;;;;3.00;0.00;;;;;16.20;56.09;99459.63;5077893;28;45518;-61
2021/11/01 09:52:29;;;;;;;;;0.00;0.00;;;;;16.39;55.16;99455.41;5077654;28;47366;-61
2021/11/01 09:54:57;;;;;;;;;0.00;0.00;;;;;16.54;55.43;99455.22;5077706;27;45299;-61
2021/11/01 09:57:32;;;;;;;;;0.00;0.00;;;;;16.70;54.42;99455.84;5077812;28;45323;-61
2021/11/01 09:59:58;;;;;;;;;0.75;0.75;;;;;16.88;54.59;99460.56;5060707;28;45225;-61
2021/11/01 10:02:24;;;;;;;;;1.00;1.00;;;;;17.04;54.78;99462.81;5076551;28;69549;-63
2021/11/01 10:04:51;;;;;;;;;0.25;0.25;;;;;17.23;53.62;99465.66;5076402;28;45390;-62
2021/11/01 10:07:22;;;;;;;;;2.00;1.00;;;;;17.40;52.79;99459.94;5076344;27;45308;-61
2021/11/01 10:09:55;;;;;;;;;0.00;0.00;;;;;17.56;52.71;99464.78;5077097;27;45367;-61
2021/11/01 10:12:27;;;;;;;;;0.75;0.75;;;;;17.70;52.21;99454.94;5076204;27;46142;-61
2021/11/01 10:14:54;;;;;;;;;3.00;0.00;;;;;17.85;51.82;99453.84;5077382;28;45733;-61
2021/11/01 10:17:35;;;;;;;;;2.25;1.00;;;;;17.97;51.89;99460.16;5075767;28;45386;-62
2021/11/01 10:20:17;;;;;;;;;0.50;0.50;;;;;18.14;51.33;99455.19;5076244;27;45375;-62
2021/11/01 10:22:42;;;;;;;;;1.00;1.00;;;;;18.31;51.14;99454.69;5075998;28;45594;-61
2021/11/01 10:25:13;;;;;;;;;4.00;1.00;;;;;18.48;50.99;99455.00;5076159;28;61143;-61
2021/11/01 10:27:40;;;;;;;;;0.75;0.00;;;;;18.64;49.88;99462.47;5075987;28;45312;-62
2021/11/01 10:30:06;;;;;;;;;0.75;0.75;;;;;18.76;49.09;99451.94;5058397;28;45604;-62
2021/11/01 10:32:45;;;;;;;;;1.00;1.00;;;;;18.90;49.09;99446.50;5075168;28;45384;-62
2021/11/01 10:35:18;;;;;;;;;1.50;1.50;;;;;19.04;48.69;99448.06;5076814;28;45794;-62
2021/11/01 10:41:04;;;;;;;;;2.00;1.00;;;;;19.33;47.51;99440.38;5075519;27;45391;-62
2021/11/01 11:12:11;;;;;;;;;1.50;1.00;;;;;20.33;41.72;99415.38;5054152;28;45391;-61
2021/11/01 11:19:59;;;;;;;;;1.00;0.00;;;;;20.38;41.82;99411.00;5060001;28;45815;-62
2021/11/01 11:47:25;;;;;;;;;0.50;0.50;;;;;18.89;43.15;99410.28;5079599;27;45501;-61
2021/11/01 11:49:45;;;;;;;;;0.00;0.00;;;;;18.72;43.18;99413.47;5079193;28;47060;-62
2021/11/01 11:52:11;;;;;;;;;1.00;0.00;;;;;18.57;43.09;99410.31;5077570;27;67829;-62
2021/11/01 11:54:49;;;;;;;;;0.00;0.00;;;;;18.39;42.72;99419.88;5079732;27;45473;-60
2021/11/01 11:57:25;;;;;;;;;1.00;0.00;;;;;18.24;43.21;99414.88;5079733;28;45448;-62
2021/11/01 11:59:52;;;;;;;;;0.25;0.00;;;;;18.07;43.62;99409.22;5077481;27;46950;-62
2021/11/01 12:02:40;;;;;;;;;0.50;0.50;;;;;17.90;43.53;99407.03;5079138;27;45511;-61
2021/11/01 12:05:16;;;;;;;;;2.50;1.25;;;;;17.76;44.02;99422.19;5078324;28;45369;-61
2021/11/01 12:07:45;;;;;;;;;0.00;0.00;;;;;17.63;44.12;99407.13;5079491;27;45252;-62
2021/11/01 12:10:30;;;;;;;;;0.00;0.00;;;;;17.52;44.40;99410.44;5077596;28;47647;-61
2021/11/01 12:18:47;;;;;;;;;0.00;0.00;;;;;17.16;44.36;99401.97;5079431;27;45252;-61
2021/11/01 12:21:13;;;;;;;;;1.00;0.00;;;;;17.10;44.76;99400.16;5078996;27;46235;-61
2021/11/01 12:23:38;;;;;;;;;0.00;0.00;;;;;17.04;44.94;99393.81;5077205;28;52726;-62
2021/11/01 12:26:11;;;;;;;;;0.75;0.00;;;;;16.99;44.98;99401.59;5079357;27;45436;-61
2021/11/01 12:28:37;;;;;;;;;0.00;0.00;;;;;16.93;45.50;99399.75;5077909;28;45614;-61
2021/11/01 12:31:02;;;;;;;;;0.00;0.00;;;;;16.89;45.47;99395.88;5078797;28;46138;-61
2021/11/01 12:33:29;;;;;;;;;1.00;1.00;;;;;16.86;45.97;99390.97;5078559;28;45362;-61
2021/11/01 12:35:59;;;;;;;;;1.00;1.00;;;;;16.80;45.83;99391.78;5079202;28;45264;-61
2021/11/01 12:38:38;;;;;;;;;0.25;0.00;;;;;16.73;46.20;99375.88;5078917;27;45223;-61
2021/11/01 12:41:16;;;;;;;;;1.00;1.00;;;;;16.68;46.15;99384.44;5078625;27;45426;-61
2021/11/01 12:49:51;;;;;;;;;2.50;0.75;;;;;16.75;45.83;99368.53;5078684;28;45514;-61
2021/11/01 12:57:22;;;;;;;;;1.25;0.00;;;;;16.86;45.52;99359.13;5078834;28;45338;-60
2021/11/01 12:59:49;;;;;;;;;3.00;0.25;;;;;16.87;45.65;99360.78;5077529;27;45386;-61
2021/11/01 13:02:32;;;;;;;;;3.00;1.00;;;;;16.86;45.79;99356.50;5078112;27;46317;-61
2021/11/01 13:05:04;;;;;;;;;1.50;1.00;;;;;16.81;45.06;99351.78;5077125;28;45312;-61
2021/11/01 13:10:09;;;;;;;;;2.00;0.00;;;;;16.72;45.30;99356.50;5078648;27;45319;-62
2021/11/01 13:12:45;;;;;;;;;2.25;1.25;;;;;16.70;46.18;99350.59;5078435;27;45342;-61
2021/11/01 13:21:08;;;;;;;;;4.00;0.75;;;;;16.56;47.49;99327.72;5068931;27;45521;-61
2021/11/01 13:23:35;;;;;;;;;0.75;0.00;;;;;16.52;47.72;99319.38;5043745;28;45788;-62
2021/11/01 13:26:24;;;;;;;;;0.75;0.75;;;;;16.50;48.15;99326.72;5078174;28;45756;-62
2021/11/01 13:36:47;;;;;;;;;0.00;0.00;;;;;16.39;49.21;99330.81;5077903;27;45673;-61
2021/11/01 13:39:22;;;;;;;;;1.50;1.00;;;;;16.36;49.31;99323.28;5077974;28;45176;-61
2021/11/01 13:41:47;;;;;;;;;3.00;1.00;;;;;16.34;49.28;99319.19;5078047;27;45434;-61
2021/11/01 13:44:24;;;;;;;;;3.00;1.00;;;;;16.29;49.44;99322.44;5076473;27;46970;-61
2021/11/01 13:46:57;;;;;;;;;4.50;4.00;;;;;16.26;49.81;99320.22;5076373;28;45421;-61
2021/11/01 13:49:23;;;;;;;;;3.00;2.25;;;;;16.22;49.65;99316.34;5077854;28;45366;-62
2021/11/01 13:51:50;;;;;;;;;3.00;3.00;;;;;16.18;49.53;99329.16;5076927;27;52879;-62
2021/11/01 13:54:39;;;;;;;;;2.25;2.00;;;;;16.12;49.60;99316.75;5077383;27;46235;-60
2021/11/01 13:57:06;;;;;;;;;1.25;1.00;;;;;16.08;49.68;99313.66;5075802;28;45439;-61
2021/11/01 13:59:56;;;;;;;;;4.75;1.00;;;;;16.02;50.22;99311.81;5076063;28;45416;-60
2021/11/01 14:34:57;;;;;;;;;1.75;1.75;;;;;14.56;56.40;99367.28;5077205;28;45397;-61
2021/11/01 15:20:48;;;;;;;;;1.00;1.00;;;;;12.72;61.31;99372.41;5075223;27;45875;-61
2021/11/01 16:19:37;;;;;;;;;8.00;4.00;;;;;12.22;65.98;99348.25;5078642;28;45339;-61
2021/11/01 16:22:02;;;;;;;;;5.00;5.00;;;;;12.24;65.69;99354.19;5079390;27;45520;-61
2021/11/01 16:24:28;;;;;;;;;6.00;5.00;;;;;12.23;65.59;99355.16;5078055;28;73930;-61
2021/11/01 16:26:54;;;;;;;;;7.00;5.50;;;;;12.23;66.23;99352.53;5077257;27;64936;-61
2021/11/01 16:29:24;;;;;;;;;11.25;8.00;;;;;12.20;66.17;99355.53;5078941;28;45358;-61
2021/11/01 16:31:53;;;;;;;;;8.25;8.00;;;;;12.20;65.92;99355.53;5077650;28;45341;-61
2021/11/01 16:34:30;;;;;;;;;9.00;6.25;;;;;12.17;66.14;99355.91;5077943;28;46068;-60
2021/11/01 16:37:14;;;;;;;;;5.50;4.00;;;;;12.13;66.04;99352.78;5062328;28;45827;-60
2021/11/01 16:39:48;;;;;;;;;7.50;3.00;;;;;12.08;65.54;99352.47;5062968;28;45324;-60
2021/11/01 16:42:15;;;;;;;;;6.00;4.75;;;;;12.05;65.67;99354.66;5078552;28;45234;-60
2021/11/01 16:44:43;;;;;;;;;4.50;4.00;;;;;12.00;66.32;99356.00;5077788;28;45491;-60
2021/11/01 16:47:08;;;;;;;;;3.00;3.00;;;;;11.98;65.78;99360.59;5078754;28;45390;-61
2021/11/01 16:49:34;;;;;;;;;7.25;4.50;;;;;11.94;65.90;99363.72;5078984;28;45381;-61
2021/11/01 16:52:05;;;;;;;;;6.75;6.00;;;;;11.88;65.88;99365.25;5079013;28;45321;-61
2021/11/01 16:54:33;;;;;;;;;7.50;5.75;;;;;11.82;66.28;99361.50;5078731;28;45439;-61
2021/11/01 17:04:58;;;;;;;;;4.00;3.00;;;;;11.55;65.70;99378.59;5077582;27;45363;-60
2021/11/01 17:26:10;;;;;;;;;2.00;2.00;;;;;11.08;66.86;99383.66;5078245;28;45362;-60
2021/11/01 17:28:54;;;;;;;;;3.50;3.50;;;;;11.01;66.93;99377.44;5078229;28;45856;-61
2021/11/01 17:34:39;;;;;;;;;4.25;4.00;;;;;10.95;66.87;99384.16;5077512;27;45396;-62
2021/11/01 18:53:04;;;;;;;;;19.75;19.75;;;;;10.53;69.03;99437.72;5075589;28;45745;-61
2021/11/01 18:55:31;;;;;;;;;18.25;16.50;;;;;10.53;69.30;99435.09;5075403;28;45874;-62
2021/11/01 18:57:56;;;;;;;;;18.25;16.75;;;;;10.53;68.92;99424.59;5076839;28;45344;-61
2021/11/01 19:00:22;;;;;;;;;20.50;16.00;;;;;10.53;69.03;99435.94;5058281;28;45471;-60
2021/11/01 19:02:49;;;;;;;;;21.50;19.25;;;;;10.54;68.95;99426.22;5074454;27;58198;-61
2021/11/01 19:05:30;;;;;;;;;20.50;20.00;;;;;10.56;68.88;99429.50;5076646;28;45439;-61
2021/11/01 19:08:08;;;;;;;;;18.50;17.00;;;;;10.56;69.15;99428.72;5075121;28;45374;-61
2021/11/01 21:27:36;;;;;;;;;69.75;55.25;;;;;9.14;68.56;99387.22;5060832;27;45582;-60
2021/11/01 21:30:03;;;;;;;;;70.50;57.25;;;;;9.15;68.69;99404.59;5078361;27;46074;-60
2021/11/01 21:32:29;;;;;;;;;69.75;55.00;;;;;9.13;68.75;99391.66;5076777;28;45569;-60
2021/11/01 21:35:04;;;;;;;;;68.00;54.50;;;;;9.13;68.72;99396.06;5077949;28;45999;-60
2021/11/01 21:37:30;;;;;;;;;67.00;53.50;;;;;9.13;68.57;99398.69;5076811;28;45372;-60
2021/11/01 21:39:58;;;;;;;;;68.75;52.00;;;;;9.13;68.83;99389.03;5078215;28;45295;-60
2021/11/01 21:42:23;;;;;;;;;58.00;47.75;;;;;9.12;68.84;99389.16;5078237;28;45429;-60
2021/11/01 21:44:49;;;;;;;;;60.75;45.25;;;;;9.14;69.24;99392.47;5077234;27;62854;-61
2021/11/01 21:47:14;;;;;;;;;52.25;42.00;;;;;9.15;69.20;99391.47;5078043;27;45449;-59
2021/11/01 21:49:39;;;;;;;;;50.25;41.25;;;;;9.18;69.81;99396.41;5078083;28;45520;-61
2021/11/01 21:52:05;;;;;;;;;43.50;37.25;;;;;9.23;69.79;99393.34;5077362;28;58138;-61
2021/11/01 21:54:33;;;;;;;;;45.75;38.50;;;;;9.28;70.11;99397.13;5077609;28;45596;-61
2021/11/01 21:57:02;;;;;;;;;31.50;28.50;;;;;9.34;70.23;99382.56;5077685;28;45310;-60
2021/11/01 22:18:27;;;;;;;;;27.25;23.25;;;;;9.78;71.21;99358.84;5077540;28;45177;-59
2021/11/01 22:20:58;;;;;;;;;26.50;21.75;;;;;9.83;71.14;99366.22;5076339;27;45302;-61
2021/11/01 22:26:00;;;;;;;;;17.75;17.50;;;;;9.92;70.42;99351.28;5077344;28;46025;-60
2021/11/01 22:34:11;;;;;;;;;25.75;22.50;;;;;10.00;70.46;99342.63;5077382;28;45272;-60
2021/11/01 22:57:58;;;;;;;;;28.25;23.25;;;;;10.08;70.29;99334.75;5076906;28;45669;-61
2021/11/01 23:00:37;;;;;;;;;24.25;23.50;;;;;10.08;70.47;99335.59;5076671;28;45456;-61
2021/11/01 23:35:42;;;;;;;;;24.00;19.50;;;;;10.21;69.51;99321.16;5076579;28;45335;-60
2021/11/01 23:38:08;;;;;;;;;15.50;14.00;;;;;10.21;69.94;99316.72;5075489;28;66608;-60
2021/11/01 23:40:33;;;;;;;;;14.50;14.00;;;;;10.20;70.17;99317.69;5075381;28;71307;-60
2021/11/01 23:42:59;;;;;;;;;13.75;10.50;;;;;10.21;69.74;99311.47;5076174;28;45378;-60
2021/11/01 23:45:24;;;;;;;;;11.75;9.75;;;;;10.23;69.85;99314.75;5076447;27;45505;-61
2021/11/01 23:47:49;;;;;;;;;10.00;10.00;;;;;10.23;69.86;99304.25;5075560;27;57974;-61
2021/11/01 23:50:15;;;;;;;;;9.25;9.25;;;;;10.23;69.85;99304.25;5075953;28;46018;-60
2021/11/01 23:52:51;;;;;;;;;11.75;10.00;;;;;10.23;69.85;99301.63;5074889;28;45473;-61
2021/11/01 23:55:17;;;;;;;;;8.00;8.00;;;;;10.21;69.70;99300.97;5076229;28;45342;-60
2021/11/01 23:57:42;;;;;;;;;8.25;7.50;;;;;10.20;70.07;99298.53;5075270;28;65329;-60
